Mirante, Brazil
Current Conditions -  °F | °C
As of 4:30 AM on Friday 24 Oct 2014 (Local Time) from SBQV Reporting Station
Drizzle Drizzle  
Wind Chill: 61°   Ceiling: 500
Heat Index: 61°   Visibility: 5mi
Dew Point: 61°   Wind: 9mph
Humidity: 100%   Direction: 130°SE
Pressure: 30.12"   Gusts: NA
Location:  14.25°S, 40.78°W
Report Text: SBQV 240730Z 13008KT 8000 -DZ BKN005 16/16 Q1020
Loading
Personal Weather Stations






























Interactive Weather Map
Tropical Storm Tracking
New forecast layout! Learn more

10-Day Weather Forecast

Advertisements
Track Severe Weather on mobile